Pagrindinis puslapis
METAR-TAF:

METAR-TAF

Oro uostai :

Rørvik, Norvegija

platuma: 64-50N, ilguma: 011-09E, Aukštis: 4 m

Dabartinis oras

Ataskaita buvo paskelbta 21 valandos ir 23 minutes, ne 16:50 UTC
Vėjas 2 kt nuo kintamojo kryptimis
Temperatūra 25°C
Drėgmė 32%
Slėgis 1030 hPa
Matomumas 10 km arba daugiau
nėra debesų žemiau 1500 m ir nėra kamuolinių lietaus debesų

METAR: ENRM 311650Z VRB02KT CAVOK 25/07 Q1030

Laikas: 16:13 (14:13 UTC)

Prognozė

Ataskaita buvo paskelbta 13 minutes, ne 14:00 UTC
Prognozė galioja nuo 31 metu 15 UTC su 31 metu 19 UTC
Vėjas 5 kt nuo kintamojo kryptimis
Matomumas 10 km arba daugiau
nėra debesų žemiau 1500 m ir nėra kamuolinių lietaus debesų

TAF: ENRM 311400Z 3115/3119 VRB05KT CAVOK

Orai ataskaitas ir orų prognozės (METAR, TAF).

turimą stotys yra geltonos ir raudonos taškus žemėlapyje.

Perkelti pele per norėdami pamatyti stoties vardą.

Tada spustelėkite, norėdami matyti oro stebėjimo ir prognozės.

Norėdami pakeisti žemėlapį: spustelėkite ant žalios mygtukų su juodo kryžiaus žemyn,; žalią mygtuką su brūkšneliu, jei norite nutolinti; arba žalių rodyklių gretimoms žemėlapius.


METAR-TAF: